BGY weather

Il Caravaggio International Airport
Bergamo, Lombardy, Italy

Public forecast

Using degrees Celsius for public forecast. Weather courtesy of forecast.io.

METAR (pilot weather report)

Retrieved 2018/10/23 05:20 UTC (37 minutes ago):

LIME 230520Z 36004KT CAVOK 08/05 Q1024 NOSIG

TAF (pilot weather forecast)

Forecast is more than 12 hours old.

Retrieved 2018/10/22 00:00 UTC (1 day ago):

TAF LIME 222300Z 2300/2324 VRB05KT CAVOK